Time;durP1;ratioP1;P1;durP2;ratioP2;P2;SDS_P1;SDS_P2;PMS_P1;PMS_P2;Temp;Humidity;BMP_temperature;BMP_pressure;BME280_temperature;BME280_humidity;BME280_pressure;Samples;Min_cycle;Max_cycle;Signal;HPM_P1;HPM_P2
2022/06/15 20:04:19;;;;;;;;;22.50;22.25;;;;;;;;5158201;27;76975;-73
2022/06/15 20:06:47;;;;;;;;;15.75;15.75;;;;;;;;5155069;27;23149;-71
2022/06/15 20:09:12;;;;;;;;;14.67;14.00;;;;;;;;5156638;27;12325;-71
2022/06/15 20:11:38;;;;;;;;;13.00;12.33;;;;;;;;5157739;27;11685;-72
2022/06/15 20:14:03;;;;;;;;;15.33;15.33;;;;;;;;5157367;27;11376;-74
2022/06/15 20:16:33;;;;;;;;;14.67;14.67;;;;;;;;5156932;27;10970;-75
2022/06/15 20:18:59;;;;;;;;;15.67;15.67;;;;;;;;5157749;27;11484;-75
2022/06/15 20:21:24;;;;;;;;;10.00;10.00;;;;;;;;5151409;27;9118;-74
2022/06/15 20:23:51;;;;;;;;;11.00;9.00;;;;;;;;5155104;27;11774;-74
2022/06/15 20:26:18;;;;;;;;;10.00;10.00;;;;;;;;5155984;27;21475;-74
2022/06/15 20:28:45;;;;;;;;;10.50;9.25;;;;;;;;5155994;27;21603;-73
2022/06/15 20:31:12;;;;;;;;;9.33;9.33;;;;;;;;5156621;27;22797;-74
2022/06/15 20:33:38;;;;;;;;;14.00;13.00;;;;;;;;5155700;27;16822;-74
2022/06/15 20:36:03;;;;;;;;;12.67;11.00;;;;;;;;5156002;27;23382;-73
2022/06/15 20:38:28;;;;;;;;;11.67;11.67;;;;;;;;5157338;27;10366;-76
2022/06/15 20:40:54;;;;;;;;;12.67;12.67;;;;;;;;5157822;27;11997;-77
2022/06/15 20:43:20;;;;;;;;;12.00;12.00;;;;;;;;5155839;27;8913;-77
2022/06/15 20:45:46;;;;;;;;;12.00;11.33;;;;;;;;5156781;27;8792;-78
2022/06/15 20:48:12;;;;;;;;;10.75;10.75;;;;;;;;5156966;27;8915;-77
2022/06/15 20:50:40;;;;;;;;;11.67;11.67;;;;;;;;5156340;27;10713;-77
2022/06/15 20:53:05;;;;;;;;;9.00;9.00;;;;;;;;5156794;27;11618;-77
2022/06/15 20:56:42;;;;;;;;;12.00;11.00;;;;;;;;5156251;27;22296;-77
2022/06/15 20:58:16;;;;;;;;;11.75;11.50;;;;;;;;5155881;27;22540;-77
2022/06/15 21:00:41;;;;;;;;;11.00;11.00;;;;;;;;5156480;27;11353;-77
2022/06/15 21:03:06;;;;;;;;;10.67;10.00;;;;;;;;5154316;27;9151;-77
2022/06/15 21:05:32;;;;;;;;;12.00;12.00;;;;;;;;5154065;27;10361;-77
2022/06/15 21:07:57;;;;;;;;;14.33;13.00;;;;;;;;5156363;27;10391;-78
2022/06/15 21:18:34;;;;;;;;;12.33;12.33;;;;;;;;5142023;27;9251;-78
2022/06/15 21:20:59;;;;;;;;;14.00;13.00;;;;;;;;5143042;27;11585;-78
2022/06/15 21:23:25;;;;;;;;;15.67;15.00;;;;;;;;5141178;27;12181;-78
2022/06/15 21:25:50;;;;;;;;;13.67;13.67;;;;;;;;5142153;27;10796;-79
2022/06/15 21:28:15;;;;;;;;;15.33;13.67;;;;;;;;5142767;27;11378;-80
2022/06/15 21:30:42;;;;;;;;;17.00;14.00;;;;;;;;5142858;27;9052;-82
2022/06/15 21:33:08;;;;;;;;;15.00;14.67;;;;;;;;5141647;27;12916;-85
2022/06/15 21:35:34;;;;;;;;;13.67;12.33;;;;;;;;5140110;27;11527;-84
2022/06/15 21:38:00;;;;;;;;;17.00;14.67;;;;;;;;5140914;27;11477;-86
2022/06/15 21:40:25;;;;;;;;;18.33;17.00;;;;;;;;5140375;27;13471;-84
2022/06/15 21:42:51;;;;;;;;;13.67;13.67;;;;;;;;5137757;27;11521;-84
2022/06/15 21:45:21;;;;;;;;;16.33;15.67;;;;;;;;5141248;27;11500;-83
2022/06/15 21:47:48;;;;;;;;;13.67;13.33;;;;;;;;5139671;27;12551;-84
2022/06/15 21:50:14;;;;;;;;;19.33;14.00;;;;;;;;5142823;27;11430;-83
2022/06/15 21:52:40;;;;;;;;;16.33;16.00;;;;;;;;5140898;27;11436;-83
2022/06/15 21:55:06;;;;;;;;;16.00;16.00;;;;;;;;5141918;27;9375;-83
2022/06/15 21:57:31;;;;;;;;;19.00;15.00;;;;;;;;5142152;27;8830;-83
2022/06/15 21:59:56;;;;;;;;;15.67;15.33;;;;;;;;5142251;27;9016;-83
2022/06/15 22:02:22;;;;;;;;;17.75;17.00;;;;;;;;5142018;27;11875;-83
2022/06/15 22:04:47;;;;;;;;;16.00;15.00;;;;;;;;5142241;27;11410;-83
2022/06/15 22:07:12;;;;;;;;;13.33;13.00;;;;;;;;5142196;27;10350;-83
2022/06/15 22:09:38;;;;;;;;;15.75;15.00;;;;;;;;5141673;27;10772;-82
2022/06/15 22:12:03;;;;;;;;;20.75;16.25;;;;;;;;5141549;27;9692;-81
2022/06/15 22:14:29;;;;;;;;;15.33;14.33;;;;;;;;5141513;27;13736;-82
2022/06/15 22:16:55;;;;;;;;;16.00;15.00;;;;;;;;5141287;27;11442;-82
2022/06/15 22:19:20;;;;;;;;;16.75;16.00;;;;;;;;5141003;27;11451;-82
2022/06/15 22:21:46;;;;;;;;;15.25;15.25;;;;;;;;5141006;27;9650;-82
2022/06/15 22:24:13;;;;;;;;;19.67;16.33;;;;;;;;5141953;27;11772;-82
2022/06/15 22:26:38;;;;;;;;;17.33;15.00;;;;;;;;5140609;27;10415;-82
2022/06/15 22:29:04;;;;;;;;;18.00;16.25;;;;;;;;5141459;27;11524;-82
2022/06/15 22:31:29;;;;;;;;;17.25;17.25;;;;;;;;5139981;27;11896;-82
2022/06/15 22:33:56;;;;;;;;;16.50;16.50;;;;;;;;5140852;27;10548;-81
2022/06/15 22:36:21;;;;;;;;;19.50;16.75;;;;;;;;5141173;27;11667;-82
2022/06/15 22:38:47;;;;;;;;;16.75;16.00;;;;;;;;5140613;27;11367;-81
2022/06/15 22:41:13;;;;;;;;;15.33;14.00;;;;;;;;5139975;27;11852;-81
2022/06/15 22:43:38;;;;;;;;;15.67;15.00;;;;;;;;5140925;27;9512;-81
2022/06/15 22:46:04;;;;;;;;;15.00;14.33;;;;;;;;5139534;27;11457;-81
2022/06/15 22:51:13;;;;;;;;;14.67;14.33;;;;;;;;5140663;27;10380;-82
2022/06/15 22:53:39;;;;;;;;;14.00;13.00;;;;;;;;5141605;27;10521;-84
2022/06/15 22:56:08;;;;;;;;;14.33;13.67;;;;;;;;5141035;27;10356;-82
2022/06/15 22:58:33;;;;;;;;;14.00;14.00;;;;;;;;5141437;27;11490;-82
2022/06/15 23:00:59;;;;;;;;;14.67;11.00;;;;;;;;5140196;27;12420;-82
2022/06/15 23:03:25;;;;;;;;;17.50;15.50;;;;;;;;5140755;27;9589;-82
2022/06/15 23:05:50;;;;;;;;;14.00;14.00;;;;;;;;5141106;27;11432;-82
2022/06/15 23:08:18;;;;;;;;;15.00;15.00;;;;;;;;5140589;27;11354;-81
2022/06/15 23:10:44;;;;;;;;;14.00;14.00;;;;;;;;5141406;27;10056;-82
2022/06/15 23:13:10;;;;;;;;;15.00;15.00;;;;;;;;5140931;27;9573;-82
2022/06/15 23:15:35;;;;;;;;;17.25;15.00;;;;;;;;5141117;27;8975;-81
2022/06/15 23:18:01;;;;;;;;;17.00;15.00;;;;;;;;5141146;27;9259;-83
2022/06/15 23:20:27;;;;;;;;;15.00;15.00;;;;;;;;5140622;27;9509;-84
2022/06/15 23:22:52;;;;;;;;;15.33;14.33;;;;;;;;5140820;27;8848;-80
2022/06/15 23:25:18;;;;;;;;;14.00;14.00;;;;;;;;5140377;27;10426;-82
2022/06/15 23:27:44;;;;;;;;;16.50;16.50;;;;;;;;5141400;27;11383;-82
2022/06/15 23:30:09;;;;;;;;;17.50;15.75;;;;;;;;5141049;27;11449;-82
2022/06/15 23:32:35;;;;;;;;;14.00;13.75;;;;;;;;5140557;27;11752;-82
2022/06/15 23:35:01;;;;;;;;;14.50;14.25;;;;;;;;5139242;27;12389;-81
2022/06/15 23:37:26;;;;;;;;;14.25;11.25;;;;;;;;5139936;27;9645;-80
2022/06/15 23:39:52;;;;;;;;;15.00;15.00;;;;;;;;5140006;27;10461;-81
2022/06/15 23:42:30;;;;;;;;;14.25;14.25;;;;;;;;5140800;27;11451;-82
2022/06/15 23:47:22;;;;;;;;;18.50;16.00;;;;;;;;5139911;27;11647;-81
2022/06/15 23:47:52;;;;;;;;;14.50;14.00;;;;;;;;5139644;27;11502;-81
2022/06/15 23:50:18;;;;;;;;;17.00;15.25;;;;;;;;5139011;27;9484;-82
2022/06/15 23:52:43;;;;;;;;;18.50;16.25;;;;;;;;5139920;27;11383;-82
2022/06/15 23:55:09;;;;;;;;;13.75;13.75;;;;;;;;5139904;27;11468;-81
2022/06/15 23:57:38;;;;;;;;;18.00;16.00;;;;;;;;5141165;27;10399;-82
